Time;durP1;ratioP1;P1;durP2;ratioP2;P2;SDS_P1;SDS_P2;PMS_P1;PMS_P2;Temp;Humidity;BMP_temperature;BMP_pressure;BME280_temperature;BME280_humidity;BME280_pressure;Samples;Min_cycle;Max_cycle;Signal;HPM_P1;HPM_P2
2022/10/09 00:01:01;;;;;;;27.02;14.48;;;4.50;99.90;;;;;;4999099;28;20037;-78
2022/10/09 00:03:28;;;;;;;29.60;14.75;;;4.40;99.90;;;;;;5005888;28;20048;-80
2022/10/09 00:05:55;;;;;;;28.05;14.45;;;4.40;99.90;;;;;;5019781;28;20074;-79
2022/10/09 00:08:22;;;;;;;25.88;13.93;;;4.60;99.90;;;;;;4988234;28;20049;-79
2022/10/09 00:10:49;;;;;;;25.13;13.32;;;4.70;99.90;;;;;;5012526;28;20106;-82
2022/10/09 00:13:16;;;;;;;30.38;13.75;;;4.70;99.90;;;;;;5008928;28;20034;-82
2022/10/09 00:15:44;;;;;;;26.85;12.43;;;4.70;99.90;;;;;;4986291;28;20042;-82
2022/10/09 00:18:13;;;;;;;23.20;11.25;;;4.60;99.90;;;;;;4993118;28;20074;-83
2022/10/09 00:20:43;;;;;;;19.92;11.45;;;4.50;99.90;;;;;;4975347;28;20050;-82
2022/10/09 00:23:13;;;;;;;24.70;12.32;;;4.50;99.90;;;;;;4977418;28;20038;-83
2022/10/09 00:25:59;;;;;;;24.88;11.98;;;4.60;99.90;;;;;;5001331;28;21049;-83
2022/10/09 00:28:28;;;;;;;25.42;12.43;;;4.60;99.90;;;;;;5008743;28;20402;-82
2022/10/09 00:30:55;;;;;;;26.13;14.02;;;4.50;99.90;;;;;;4986686;28;20046;-81
2022/10/09 00:33:22;;;;;;;21.77;11.65;;;4.30;99.90;;;;;;4999320;28;20443;-82
2022/10/09 00:35:50;;;;;;;26.55;13.00;;;4.30;99.90;;;;;;4992574;28;20100;-82
2022/10/09 00:38:16;;;;;;;26.30;13.48;;;4.20;99.90;;;;;;4992522;28;20045;-80
2022/10/09 00:40:43;;;;;;;24.15;12.80;;;4.00;99.90;;;;;;4973564;28;20046;-79
2022/10/09 00:43:19;;;;;;;18.83;13.10;;;4.10;99.90;;;;;;5007468;28;20037;-80
2022/10/09 00:45:55;;;;;;;31.88;20.50;;;4.00;99.90;;;;;;4989438;28;20058;-80
2022/10/09 00:48:22;;;;;;;26.83;16.63;;;4.00;99.90;;;;;;5006059;28;20050;-80
2022/10/09 00:50:54;;;;;;;47.20;28.48;;;4.10;99.90;;;;;;5006095;28;20037;-80
2022/10/09 00:53:23;;;;;;;27.35;17.30;;;4.20;99.90;;;;;;4991328;28;20038;-79
2022/10/09 00:55:50;;;;;;;30.83;19.48;;;4.20;99.90;;;;;;4991353;28;20562;-79
2022/10/09 00:58:17;;;;;;;32.08;19.92;;;4.30;99.90;;;;;;4991509;28;20060;-79
2022/10/09 01:00:44;;;;;;;37.25;20.35;;;4.10;99.90;;;;;;4970877;28;20053;-79
2022/10/09 01:03:11;;;;;;;29.90;18.60;;;4.00;99.90;;;;;;5004952;28;20048;-79
2022/10/09 01:05:59;;;;;;;33.50;19.85;;;4.10;99.90;;;;;;5000756;28;20044;-84
2022/10/09 01:08:37;;;;;;;36.63;18.52;;;4.20;99.90;;;;;;4987155;28;20410;-82
2022/10/09 01:11:42;;;;;;;36.17;17.60;;;4.00;99.90;;;;;;5011694;28;20124;-81
2022/10/09 01:14:27;;;;;;;29.35;15.75;;;4.10;99.90;;;;;;4968999;28;20405;-81
2022/10/09 01:17:27;;;;;;;24.55;16.67;;;4.20;99.90;;;;;;4997465;28;20041;-81
2022/10/09 01:20:26;;;;;;;32.22;15.90;;;4.10;99.90;;;;;;4978032;28;20064;-78
2022/10/09 01:23:14;;;;;;;32.42;15.50;;;4.10;99.90;;;;;;5001537;28;20046;-78
2022/10/09 01:26:07;;;;;;;34.30;14.57;;;4.20;99.90;;;;;;4997232;28;20495;-77
2022/10/09 01:28:37;;;;;;;24.33;14.43;;;4.10;99.90;;;;;;4972096;28;20060;-78
2022/10/09 01:31:05;;;;;;;29.63;13.35;;;3.90;99.90;;;;;;4983724;28;20044;-79
2022/10/09 01:33:32;;;;;;;20.80;13.00;;;3.90;99.90;;;;;;4982488;28;20069;-78
2022/10/09 01:36:00;;;;;;;32.05;14.45;;;3.80;99.90;;;;;;4985451;28;20285;-80
2022/10/09 01:38:30;;;;;;;25.20;14.10;;;3.70;99.90;;;;;;4982525;28;20702;-80
2022/10/09 01:40:57;;;;;;;19.35;12.27;;;3.70;99.90;;;;;;4991263;28;20046;-80
2022/10/09 01:43:24;;;;;;;31.80;13.88;;;3.50;99.90;;;;;;4989757;28;20050;-79
2022/10/09 01:46:16;;;;;;;18.88;12.38;;;3.50;99.90;;;;;;4984381;28;20053;-80
2022/10/09 01:49:03;;;;;;;20.52;13.30;;;3.40;99.90;;;;;;4981184;28;20050;-80
2022/10/09 01:51:39;;;;;;;20.83;13.57;;;3.30;99.90;;;;;;4967420;28;20129;-79
2022/10/09 01:54:08;;;;;;;21.77;13.40;;;3.30;99.90;;;;;;4990843;28;20466;-80
2022/10/09 01:56:38;;;;;;;23.80;13.93;;;3.20;99.90;;;;;;4989492;28;20419;-80
2022/10/09 01:59:14;;;;;;;26.25;16.48;;;3.10;99.90;;;;;;4987661;28;20772;-79
2022/10/09 02:01:42;;;;;;;30.20;16.27;;;3.00;99.90;;;;;;5006506;28;20054;-80
2022/10/09 02:04:12;;;;;;;23.13;15.40;;;3.10;99.90;;;;;;5005655;28;20052;-79
2022/10/09 02:06:40;;;;;;;24.05;15.43;;;3.00;99.90;;;;;;4999903;28;20387;-79
2022/10/09 02:09:12;;;;;;;22.85;15.95;;;3.10;99.90;;;;;;4985846;28;20046;-79
2022/10/09 02:11:42;;;;;;;25.00;15.90;;;3.10;99.90;;;;;;4987525;28;20144;-80
2022/10/09 02:14:09;;;;;;;23.50;15.68;;;3.10;99.90;;;;;;4968110;28;20042;-80
2022/10/09 02:16:37;;;;;;;28.40;16.40;;;3.30;99.90;;;;;;4963729;28;20056;-79
2022/10/09 02:19:31;;;;;;;33.85;16.67;;;3.10;99.90;;;;;;5001948;28;20056;-79
2022/10/09 02:22:18;;;;;;;22.83;15.50;;;3.00;99.90;;;;;;5016050;28;20046;-80
2022/10/09 02:24:46;;;;;;;19.08;14.55;;;2.80;99.90;;;;;;4980107;28;20050;-80
2022/10/09 02:27:14;;;;;;;29.55;15.75;;;2.80;99.90;;;;;;4980603;28;20577;-80
2022/10/09 02:29:43;;;;;;;25.50;15.65;;;2.80;99.90;;;;;;4981065;28;20058;-80
2022/10/09 02:32:11;;;;;;;21.30;15.13;;;2.80;99.90;;;;;;5006431;28;20062;-79
2022/10/09 02:34:38;;;;;;;23.25;15.75;;;2.70;99.90;;;;;;5003760;28;20052;-79
2022/10/09 02:37:05;;;;;;;23.52;15.93;;;2.80;99.90;;;;;;4984785;28;20145;-80
2022/10/09 02:39:32;;;;;;;24.63;15.93;;;2.70;99.90;;;;;;4980856;28;20042;-79
2022/10/09 02:41:58;;;;;;;24.80;15.57;;;2.80;99.90;;;;;;5005303;28;20048;-79
2022/10/09 02:44:25;;;;;;;28.58;17.48;;;3.00;99.90;;;;;;4975975;28;20046;-79
2022/10/09 02:46:52;;;;;;;25.35;16.42;;;3.10;99.90;;;;;;4983667;28;20041;-80
2022/10/09 02:49:18;;;;;;;28.90;16.58;;;3.10;99.90;;;;;;5006060;28;20038;-79
2022/10/09 02:51:45;;;;;;;22.13;15.20;;;3.10;99.90;;;;;;4996349;28;21299;-78
2022/10/09 02:54:12;;;;;;;22.85;14.70;;;3.10;99.90;;;;;;5000765;28;20499;-79
2022/10/09 02:56:39;;;;;;;20.38;14.60;;;3.10;99.90;;;;;;4980269;28;20042;-79
2022/10/09 02:59:06;;;;;;;21.65;14.23;;;2.90;99.90;;;;;;4999801;28;20489;-80
2022/10/09 03:01:33;;;;;;;28.52;15.68;;;2.80;99.90;;;;;;4980488;28;20559;-80
2022/10/09 03:04:00;;;;;;;26.17;15.07;;;2.90;99.90;;;;;;4999230;28;20541;-79
2022/10/09 03:06:27;;;;;;;21.45;15.50;;;2.80;99.90;;;;;;4980311;28;20507;-80
2022/10/09 03:08:56;;;;;;;24.52;15.23;;;2.70;99.90;;;;;;5000039;28;20045;-80
2022/10/09 03:11:24;;;;;;;39.17;16.55;;;2.60;99.90;;;;;;4982941;28;20048;-80
2022/10/09 03:13:51;;;;;;;28.38;16.50;;;2.50;99.90;;;;;;4980979;28;20038;-80
2022/10/09 03:16:23;;;;;;;22.77;16.60;;;2.50;99.90;;;;;;4979500;28;20736;-79
2022/10/09 03:18:51;;;;;;;21.63;15.30;;;2.50;99.90;;;;;;4998912;28;20103;-79
2022/10/09 03:21:20;;;;;;;24.98;16.02;;;2.40;99.90;;;;;;5000308;28;20415;-79
2022/10/09 03:23:48;;;;;;;26.20;16.63;;;2.40;99.90;;;;;;4998399;28;20060;-79
2022/10/09 03:26:18;;;;;;;18.52;15.85;;;2.30;99.90;;;;;;5002549;28;20141;-79
2022/10/09 03:28:46;;;;;;;22.58;16.17;;;2.20;99.90;;;;;;5002761;28;20411;-79
2022/10/09 03:31:18;;;;;;;23.45;16.42;;;2.30;99.90;;;;;;4978549;28;20041;-79
2022/10/09 03:34:05;;;;;;;24.08;15.70;;;2.50;99.90;;;;;;4998073;28;20052;-79
2022/10/09 03:36:32;;;;;;;22.15;15.77;;;2.60;99.90;;;;;;4983653;28;20120;-79
2022/10/09 03:38:58;;;;;;;27.88;17.60;;;2.60;99.90;;;;;;4991631;28;20042;-81
2022/10/09 03:41:25;;;;;;;29.75;16.60;;;2.60;99.90;;;;;;4983655;28;20046;-79
2022/10/09 03:43:54;;;;;;;28.05;16.50;;;2.70;99.90;;;;;;5010934;28;20112;-78
2022/10/09 03:46:21;;;;;;;32.03;16.70;;;2.80;99.90;;;;;;4986942;28;20034;-79
2022/10/09 03:48:48;;;;;;;28.52;15.73;;;2.90;99.90;;;;;;4990843;28;20053;-79
2022/10/09 03:51:15;;;;;;;29.42;15.13;;;2.90;99.90;;;;;;4983799;28;20038;-79
2022/10/09 03:53:41;;;;;;;27.60;15.88;;;3.00;99.90;;;;;;4970510;28;20052;-79
2022/10/09 03:56:08;;;;;;;25.27;14.35;;;2.90;99.90;;;;;;4987941;28;20033;-79
2022/10/09 03:58:35;;;;;;;28.92;15.60;;;2.90;99.90;;;;;;4968712;28;20163;-79
2022/10/09 04:01:01;;;;;;;37.75;16.55;;;2.80;99.90;;;;;;4969278;28;20121;-79
2022/10/09 04:03:31;;;;;;;26.75;14.73;;;2.60;99.90;;;;;;5002106;28;20053;-79
2022/10/09 04:05:58;;;;;;;29.60;15.18;;;2.50;99.90;;;;;;5002780;28;20045;-79
2022/10/09 04:08:24;;;;;;;24.65;15.98;;;2.40;99.90;;;;;;5004157;28;20045;-79
2022/10/09 04:10:57;;;;;;;27.15;15.20;;;2.40;99.90;;;;;;5001683;28;20038;-80
2022/10/09 04:13:24;;;;;;;28.85;15.52;;;2.30;99.90;;;;;;5002709;28;20046;-79
2022/10/09 04:15:53;;;;;;;27.15;15.23;;;2.20;99.90;;;;;;4994182;28;20034;-79
2022/10/09 04:18:20;;;;;;;24.83;16.13;;;2.10;99.90;;;;;;5002878;28;20053;-80
2022/10/09 04:20:55;;;;;;;30.13;16.92;;;2.00;99.90;;;;;;4984773;28;20049;-80
2022/10/09 04:23:23;;;;;;;;;;;1.90;99.90;;;;;;4989902;28;20415;-79
2022/10/09 04:25:55;;;;;;;30.80;15.68;;;2.00;99.90;;;;;;4985377;28;19929;-79
2022/10/09 04:28:24;;;;;;;22.67;16.15;;;2.10;99.90;;;;;;4989093;28;20041;-80
2022/10/09 04:30:51;;;;;;;31.70;15.98;;;2.00;99.90;;;;;;4991742;28;20054;-79
2022/10/09 04:33:18;;;;;;;32.80;17.73;;;2.00;99.90;;;;;;4986325;28;20050;-79
2022/10/09 04:35:48;;;;;;;32.42;18.35;;;2.00;99.90;;;;;;5001237;28;20137;-79
2022/10/09 04:38:15;;;;;;;42.65;17.80;;;2.10;99.90;;;;;;4974549;28;20069;-79
2022/10/09 04:40:42;;;;;;;36.33;16.42;;;2.20;99.90;;;;;;4983723;28;20572;-78
2022/10/09 04:43:12;;;;;;;32.28;15.35;;;2.40;99.90;;;;;;4972407;28;20045;-79
2022/10/09 04:45:39;;;;;;;31.67;14.68;;;2.50;99.90;;;;;;4984721;28;20057;-80
2022/10/09 04:48:06;;;;;;;30.63;15.55;;;2.40;99.90;;;;;;4991472;28;20422;-80
2022/10/09 04:50:33;;;;;;;59.67;17.23;;;2.40;99.90;;;;;;5001073;28;20046;-81
2022/10/09 04:52:59;;;;;;;51.53;16.23;;;2.50;99.90;;;;;;4994800;28;20038;-81
2022/10/09 04:55:28;;;;;;;38.28;15.85;;;2.50;99.90;;;;;;4985224;28;20046;-81
2022/10/09 04:57:58;;;;;;;41.90;15.38;;;2.50;99.90;;;;;;4986200;28;20218;-81
2022/10/09 05:00:25;;;;;;;38.20;15.45;;;2.40;99.90;;;;;;4974848;28;20046;-81
2022/10/09 05:02:51;;;;;;;33.30;13.52;;;2.50;99.90;;;;;;4981654;28;20310;-81
2022/10/09 05:05:18;;;;;;;33.90;13.75;;;2.50;99.90;;;;;;4992484;28;20045;-78
2022/10/09 05:07:45;;;;;;;32.78;14.90;;;2.40;99.90;;;;;;5000534;28;20056;-78
2022/10/09 05:10:11;;;;;;;39.50;14.40;;;2.30;99.90;;;;;;4984969;28;20033;-78
2022/10/09 05:12:38;;;;;;;34.67;14.82;;;2.30;99.90;;;;;;4999674;28;20392;-78
2022/10/09 05:15:05;;;;;;;29.73;14.70;;;2.20;99.90;;;;;;5001694;28;20073;-78
2022/10/09 05:17:32;;;;;;;29.73;14.07;;;2.10;99.90;;;;;;4989609;28;20034;-78
2022/10/09 05:19:59;;;;;;;32.42;13.50;;;2.10;99.90;;;;;;4982382;28;20049;-78
2022/10/09 05:22:25;;;;;;;30.80;13.95;;;2.10;99.90;;;;;;4999671;28;20412;-78
2022/10/09 05:24:52;;;;;;;27.40;14.18;;;2.10;99.90;;;;;;4985062;28;20100;-78
2022/10/09 05:27:19;;;;;;;33.42;14.52;;;2.00;99.90;;;;;;5000956;28;20060;-78
2022/10/09 05:29:45;;;;;;;34.97;15.10;;;2.10;99.90;;;;;;5000502;28;20133;-78
2022/10/09 05:32:13;;;;;;;37.97;16.00;;;2.20;99.90;;;;;;5001413;28;20064;-78
2022/10/09 05:34:40;;;;;;;47.15;15.73;;;2.30;99.90;;;;;;4984150;28;20048;-78
2022/10/09 05:37:06;;;;;;;41.55;16.67;;;2.30;99.90;;;;;;4986942;28;20554;-78
2022/10/09 05:39:34;;;;;;;35.88;15.02;;;2.30;99.90;;;;;;4983194;28;20414;-78
2022/10/09 05:42:01;;;;;;;47.90;16.85;;;2.40;99.90;;;;;;4977041;28;20044;-78
2022/10/09 05:44:31;;;;;;;48.80;15.75;;;2.40;99.90;;;;;;4999302;28;20768;-78
2022/10/09 05:46:57;;;;;;;43.60;16.55;;;2.40;99.90;;;;;;4994581;28;20419;-78
2022/10/09 05:49:24;;;;;;;34.90;15.60;;;2.40;99.90;;;;;;4972390;28;20050;-80
2022/10/09 05:51:51;;;;;;;32.90;15.95;;;2.40;99.90;;;;;;4999734;28;20042;-80
2022/10/09 05:54:17;;;;;;;36.20;15.00;;;2.40;99.90;;;;;;4983566;28;20043;-81
2022/10/09 05:56:44;;;;;;;35.05;15.05;;;2.40;99.90;;;;;;4972040;28;20042;-79
2022/10/09 05:59:14;;;;;;;33.58;14.60;;;2.40;99.90;;;;;;4979220;28;20038;-80
2022/10/09 06:01:43;;;;;;;37.50;15.35;;;2.60;99.90;;;;;;4998400;28;20049;-80
2022/10/09 06:04:15;;;;;;;33.17;14.63;;;2.60;99.90;;;;;;4997747;28;20046;-78
2022/10/09 06:06:43;;;;;;;32.63;14.50;;;2.70;99.90;;;;;;4998604;28;20658;-78
2022/10/09 06:09:10;;;;;;;38.83;15.85;;;2.60;99.90;;;;;;4971357;28;20387;-79
2022/10/09 06:11:38;;;;;;;36.58;14.23;;;2.80;99.90;;;;;;4971099;28;20053;-80
2022/10/09 06:14:08;;;;;;;38.53;15.45;;;2.70;99.90;;;;;;5001704;28;20688;-81
2022/10/09 06:16:37;;;;;;;38.78;15.50;;;2.70;99.90;;;;;;5000841;28;20034;-81
2022/10/09 06:19:06;;;;;;;28.35;12.35;;;2.80;99.90;;;;;;4988061;28;20038;-81
2022/10/09 06:21:33;;;;;;;29.23;14.00;;;2.90;99.90;;;;;;4981433;28;20038;-79
2022/10/09 06:24:01;;;;;;;25.75;12.88;;;2.70;99.90;;;;;;4987737;28;20034;-79
2022/10/09 06:26:32;;;;;;;40.92;16.80;;;2.70;99.90;;;;;;5002689;28;20145;-79
2022/10/09 06:29:00;;;;;;;42.08;17.50;;;2.80;99.90;;;;;;4978650;28;20041;-78
2022/10/09 06:31:29;;;;;;;29.10;14.73;;;2.70;99.90;;;;;;4985949;28;20060;-79
2022/10/09 06:34:02;;;;;;;26.15;12.38;;;2.70;99.90;;;;;;4984937;28;20056;-79
2022/10/09 06:36:32;;;;;;;30.75;12.80;;;2.60;99.90;;;;;;4982993;28;20056;-77
2022/10/09 06:39:00;;;;;;;24.42;12.43;;;2.60;99.90;;;;;;5002315;28;21338;-79
2022/10/09 06:41:28;;;;;;;31.85;12.93;;;2.60;99.90;;;;;;4985514;28;20045;-80
2022/10/09 06:43:57;;;;;;;28.83;12.63;;;2.70;99.90;;;;;;4986881;28;20140;-80
2022/10/09 06:46:27;;;;;;;30.92;13.45;;;2.70;99.90;;;;;;4983813;28;20649;-80
2022/10/09 06:48:58;;;;;;;29.80;13.30;;;2.80;99.90;;;;;;4999387;28;20104;-80
2022/10/09 06:51:29;;;;;;;29.88;13.65;;;3.10;99.90;;;;;;5000998;28;20050;-80
2022/10/09 06:53:58;;;;;;;32.88;14.07;;;3.10;99.90;;;;;;5015919;28;20140;-81
2022/10/09 06:56:27;;;;;;;34.42;13.60;;;3.20;99.90;;;;;;4984573;28;20046;-80
2022/10/09 06:58:54;;;;;;;31.50;14.32;;;3.30;99.90;;;;;;4997167;28;20042;-80
2022/10/09 07:01:23;;;;;;;39.70;15.43;;;3.40;99.90;;;;;;4983110;28;20048;-80
2022/10/09 07:03:56;;;;;;;44.83;17.33;;;3.60;99.90;;;;;;4988663;28;20060;-80
2022/10/09 07:06:28;;;;;;;44.08;20.20;;;3.90;99.90;;;;;;4975317;28;20045;-79
2022/10/09 07:09:00;;;;;;;55.13;22.25;;;4.20;99.90;;;;;;4977748;28;20045;-79
2022/10/09 07:11:39;;;;;;;52.50;20.90;;;4.40;99.90;;;;;;4989740;28;20046;-79
2022/10/09 07:14:07;;;;;;;44.50;22.25;;;4.70;99.90;;;;;;4982204;28;20505;-81
2022/10/09 07:16:36;;;;;;;47.13;18.42;;;4.80;99.90;;;;;;5006401;28;20438;-81
2022/10/09 07:19:06;;;;;;;37.15;19.30;;;5.00;99.90;;;;;;4991617;28;20042;-81
2022/10/09 07:21:34;;;;;;;40.90;18.38;;;5.10;99.90;;;;;;5004718;28;20046;-81
2022/10/09 07:24:02;;;;;;;43.90;18.35;;;5.30;99.90;;;;;;4976045;28;20289;-81
2022/10/09 07:26:33;;;;;;;40.92;18.48;;;5.50;99.90;;;;;;4990806;28;20133;-80
2022/10/09 07:29:01;;;;;;;49.35;19.42;;;5.60;99.90;;;;;;5004377;28;20049;-80
2022/10/09 07:31:28;;;;;;;40.50;18.63;;;5.70;99.90;;;;;;5004975;28;20643;-81
2022/10/09 07:33:55;;;;;;;47.20;17.23;;;5.90;99.90;;;;;;4993233;28;20454;-81
2022/10/09 07:36:22;;;;;;;34.22;18.33;;;6.20;99.90;;;;;;4976309;28;20054;-81
2022/10/09 07:38:51;;;;;;;37.35;16.40;;;6.40;99.90;;;;;;4990082;28;20073;-80
2022/10/09 07:41:19;;;;;;;39.88;21.00;;;6.60;99.90;;;;;;4986168;28;20046;-81
2022/10/09 07:43:46;;;;;;;40.83;18.17;;;6.80;99.90;;;;;;5003071;28;20421;-81
2022/10/09 07:46:16;;;;;;;36.95;20.70;;;6.90;99.90;;;;;;4988536;28;20069;-81
2022/10/09 07:48:43;;;;;;;36.53;16.05;;;7.10;99.90;;;;;;4995931;28;20053;-81
2022/10/09 07:51:11;;;;;;;44.80;18.67;;;7.20;99.90;;;;;;4986752;28;20042;-82
2022/10/09 07:53:38;;;;;;;27.88;14.90;;;7.50;99.90;;;;;;4986209;28;20108;-82
2022/10/09 07:56:05;;;;;;;31.70;14.77;;;7.80;99.90;;;;;;4986268;28;20052;-83
2022/10/09 07:58:32;;;;;;;30.23;15.35;;;8.10;99.90;;;;;;4987196;28;20049;-82
2022/10/09 08:01:04;;;;;;;30.92;13.23;;;8.50;99.90;;;;;;4986138;28;20044;-82
2022/10/09 08:03:31;;;;;;;28.77;13.82;;;8.70;99.90;;;;;;4972314;28;20503;-81
2022/10/09 08:05:58;;;;;;;21.35;11.27;;;8.90;99.90;;;;;;4986541;28;20140;-83
2022/10/09 08:08:25;;;;;;;24.27;11.30;;;9.10;99.90;;;;;;4987893;28;20138;-82
2022/10/09 08:10:51;;;;;;;21.83;10.95;;;9.40;99.90;;;;;;4985496;28;20045;-82
2022/10/09 08:13:18;;;;;;;14.40;11.13;;;9.60;99.90;;;;;;4989586;28;20671;-82
2022/10/09 08:15:45;;;;;;;15.55;10.27;;;9.90;99.90;;;;;;4994611;28;20492;-82
2022/10/09 08:18:12;;;;;;;17.38;10.95;;;10.00;99.90;;;;;;4991653;28;20050;-82
2022/10/09 08:20:39;;;;;;;15.93;12.82;;;10.20;99.90;;;;;;5005565;28;20060;-81
2022/10/09 08:23:06;;;;;;;16.13;12.50;;;10.30;99.90;;;;;;4988608;28;20052;-82
2022/10/09 08:25:36;;;;;;;15.45;13.85;;;10.30;99.90;;;;;;4987782;28;20065;-81
2022/10/09 08:28:03;;;;;;;15.95;13.77;;;10.50;99.90;;;;;;4988330;28;20411;-82
2022/10/09 08:30:34;;;;;;;19.52;17.58;;;10.70;99.90;;;;;;4973055;28;20065;-82
2022/10/09 08:33:00;;;;;;;20.13;16.05;;;10.80;99.90;;;;;;4993227;28;20046;-81
2022/10/09 08:35:27;;;;;;;18.38;16.08;;;11.00;99.90;;;;;;5006251;28;20042;-82
2022/10/09 08:38:00;;;;;;;18.70;16.77;;;11.10;99.90;;;;;;4993050;28;20542;-81
2022/10/09 08:40:43;;;;;;;18.33;15.77;;;11.30;99.90;;;;;;4976399;28;20053;-81
2022/10/09 08:43:16;;;;;;;17.60;16.10;;;11.30;99.90;;;;;;4986289;28;20049;-81
2022/10/09 08:45:46;;;;;;;22.70;15.40;;;11.30;99.90;;;;;;5002645;28;20096;-82
2022/10/09 08:48:19;;;;;;;18.08;16.60;;;11.30;99.90;;;;;;4985346;28;20153;-82
2022/10/09 08:50:52;;;;;;;19.77;17.42;;;11.50;99.90;;;;;;5002257;28;20138;-78
2022/10/09 08:53:43;;;;;;;21.13;19.60;;;11.50;99.90;;;;;;4989489;28;20077;-81
2022/10/09 08:56:13;;;;;;;19.60;17.85;;;11.50;99.90;;;;;;5005426;28;20042;-80
2022/10/09 08:58:41;;;;;;;30.30;25.92;;;11.60;99.90;;;;;;4976143;28;20045;-81
2022/10/09 09:01:22;;;;;;;24.20;22.08;;;11.60;99.90;;;;;;5004328;28;20053;-80
2022/10/09 09:04:07;;;;;;;25.30;22.63;;;11.60;99.90;;;;;;5004416;28;21081;-80
2022/10/09 09:06:46;;;;;;;23.00;21.50;;;11.70;99.90;;;;;;5002728;28;20042;-80
2022/10/09 09:09:29;;;;;;;23.33;21.52;;;12.00;99.90;;;;;;5004754;28;20050;-80
2022/10/09 09:12:06;;;;;;;25.13;23.17;;;12.20;99.90;;;;;;4983989;28;20046;-80
2022/10/09 09:14:51;;;;;;;29.15;26.77;;;12.30;99.90;;;;;;4972899;28;20423;-80
2022/10/09 09:17:18;;;;;;;28.80;26.25;;;12.40;99.90;;;;;;5006557;28;20059;-81
2022/10/09 09:19:47;;;;;;;24.33;22.25;;;12.60;99.90;;;;;;4990517;28;20529;-80
2022/10/09 09:22:16;;;;;;;24.38;22.33;;;12.70;99.90;;;;;;5002284;28;20268;-80
2022/10/09 09:24:48;;;;;;;26.30;24.10;;;12.50;99.90;;;;;;4989799;28;20050;-80
2022/10/09 09:27:20;;;;;;;24.13;22.33;;;12.60;99.90;;;;;;5001457;28;20387;-80
2022/10/09 09:30:02;;;;;;;23.83;22.15;;;12.60;99.90;;;;;;5003611;28;20056;-81
2022/10/09 09:32:31;;;;;;;23.50;21.42;;;12.70;99.90;;;;;;5013790;28;20048;-80
2022/10/09 09:35:12;;;;;;;20.33;18.80;;;13.00;99.90;;;;;;5019328;28;20041;-80
2022/10/09 09:37:38;;;;;;;20.40;18.48;;;13.20;99.90;;;;;;5004269;28;20141;-80
2022/10/09 09:40:16;;;;;;;19.60;18.05;;;13.10;99.90;;;;;;5004010;28;20055;-80
2022/10/09 09:43:13;;;;;;;22.30;20.42;;;13.10;99.90;;;;;;4974159;28;20042;-81
2022/10/09 09:45:42;;;;;;;20.48;18.95;;;13.50;99.90;;;;;;5005388;28;20410;-81
2022/10/09 09:48:23;;;;;;;21.58;19.67;;;13.40;99.90;;;;;;4988044;28;20597;-81
2022/10/09 09:50:53;;;;;;;23.38;21.20;;;13.10;99.90;;;;;;5013444;28;20060;-81
2022/10/09 09:53:47;;;;;;;20.27;18.65;;;13.20;99.90;;;;;;4983418;28;20100;-81
2022/10/09 09:56:15;;;;;;;20.48;19.02;;;13.40;99.90;;;;;;5003522;28;20052;-81
2022/10/09 09:58:47;;;;;;;21.05;19.55;;;13.70;99.90;;;;;;5003634;28;20050;-81
2022/10/09 10:01:23;;;;;;;21.42;19.23;;;13.70;99.90;;;;;;4985257;28;20046;-81
2022/10/09 10:03:53;;;;;;;21.45;19.73;;;13.80;99.90;;;;;;5002796;28;20072;-81
2022/10/09 10:06:21;;;;;;;20.58;18.77;;;13.90;99.90;;;;;;4974769;28;20049;-81
2022/10/09 10:09:01;;;;;;;20.40;18.65;;;13.70;99.90;;;;;;5006513;28;20038;-81
2022/10/09 10:11:29;;;;;;;20.92;19.15;;;13.90;99.90;;;;;;5002663;28;20132;-81
2022/10/09 10:13:56;;;;;;;21.00;19.15;;;13.80;99.90;;;;;;5017798;28;20402;-81
2022/10/09 10:16:28;;;;;;;21.33;19.38;;;14.00;99.90;;;;;;5015382;28;20502;-81
2022/10/09 10:18:56;;;;;;;22.33;20.63;;;13.90;99.90;;;;;;5003265;28;20048;-81
2022/10/09 10:21:23;;;;;;;22.92;21.17;;;14.00;99.90;;;;;;4986105;28;20541;-81
2022/10/09 10:24:14;;;;;;;21.45;19.95;;;14.00;99.90;;;;;;4990846;28;20050;-80
2022/10/09 10:26:45;;;;;;;22.65;20.85;;;14.00;99.90;;;;;;4984884;28;20073;-81
2022/10/09 10:29:27;;;;;;;24.35;22.35;;;14.10;99.90;;;;;;4998247;28;20120;-80
2022/10/09 10:32:31;;;;;;;23.52;21.30;;;14.20;99.90;;;;;;4977911;28;20060;-80
2022/10/09 10:35:16;;;;;;;23.35;21.27;;;14.00;99.90;;;;;;4984919;28;20046;-80
2022/10/09 10:38:17;;;;;;;22.55;20.73;;;14.00;99.90;;;;;;4985749;28;20505;-80
2022/10/09 10:40:54;;;;;;;22.88;20.83;;;14.10;99.90;;;;;;5003901;28;20046;-80
2022/10/09 10:43:42;;;;;;;21.15;19.77;;;14.40;99.90;;;;;;4989630;28;20621;-81
2022/10/09 10:46:33;;;;;;;21.75;20.20;;;14.20;99.90;;;;;;4984991;28;20080;-80
2022/10/09 10:49:00;;;;;;;22.02;20.45;;;14.20;99.90;;;;;;4988412;28;20462;-80
2022/10/09 10:52:18;;;;;;;21.75;20.02;;;14.20;99.90;;;;;;4987043;28;20046;-80
2022/10/09 10:55:17;;;;;;;21.55;19.88;;;14.20;99.90;;;;;;4992177;28;20141;-79
2022/10/09 10:58:05;;;;;;;21.48;19.98;;;14.40;99.90;;;;;;4999533;28;20053;-80
2022/10/09 11:00:37;;;;;;;21.23;19.83;;;14.60;99.90;;;;;;5003281;28;20444;-79
2022/10/09 11:03:49;;;;;;;21.35;19.88;;;14.80;99.90;;;;;;4970563;28;20041;-80
2022/10/09 11:06:31;;;;;;;22.05;20.65;;;14.70;99.90;;;;;;4979135;28;20044;-80
2022/10/09 11:09:04;;;;;;;21.48;20.02;;;14.90;99.90;;;;;;4987158;28;20077;-80
2022/10/09 11:11:49;;;;;;;21.90;20.40;;;14.80;99.90;;;;;;4971440;28;20038;-80
2022/10/09 11:14:18;;;;;;;21.30;19.98;;;14.80;99.90;;;;;;5001276;28;20096;-79
2022/10/09 11:16:59;;;;;;;22.95;21.45;;;14.90;99.90;;;;;;4972938;28;20506;-80
2022/10/09 11:19:26;;;;;;;21.17;19.70;;;15.20;99.90;;;;;;4975216;28;20045;-80
2022/10/09 11:22:04;;;;;;;23.23;20.88;;;15.40;99.90;;;;;;5005933;28;20054;-80
2022/10/09 11:24:36;;;;;;;22.48;20.73;;;14.90;99.90;;;;;;4980347;28;20056;-79
2022/10/09 11:27:15;;;;;;;21.73;20.33;;;14.80;99.90;;;;;;4972253;28;20153;-79
2022/10/09 11:29:59;;;;;;;22.98;21.10;;;14.80;99.90;;;;;;4972751;28;20050;-80
2022/10/09 11:32:34;;;;;;;21.17;19.88;;;14.60;99.90;;;;;;5001877;28;20045;-80
2022/10/09 11:35:28;;;;;;;22.40;20.15;;;14.70;99.90;;;;;;4995143;28;20042;-80
2022/10/09 11:38:06;;;;;;;21.98;20.38;;;14.70;99.90;;;;;;4987937;28;20653;-81
2022/10/09 11:40:40;;;;;;;21.42;19.77;;;14.40;99.90;;;;;;4981787;28;20051;-80
2022/10/09 11:43:25;;;;;;;22.75;20.92;;;14.40;99.90;;;;;;4981535;28;20466;-80
2022/10/09 11:46:05;;;;;;;31.23;22.00;;;14.70;99.90;;;;;;4974937;28;20211;-79
2022/10/09 11:48:49;;;;;;;20.10;18.80;;;14.80;99.90;;;;;;4977187;28;20125;-79
2022/10/09 11:51:22;;;;;;;21.05;19.63;;;14.80;99.90;;;;;;5005394;28;20050;-79
2022/10/09 11:53:50;;;;;;;22.10;20.42;;;15.10;99.90;;;;;;4991318;28;20964;-79
2022/10/09 11:56:31;;;;;;;22.50;21.10;;;15.10;99.90;;;;;;4991836;28;20251;-79
2022/10/09 11:59:22;;;;;;;21.10;19.35;;;15.20;99.90;;;;;;4986601;28;20042;-79
2022/10/09 12:01:49;;;;;;;21.40;19.98;;;15.30;99.90;;;;;;5020967;28;20042;-79
2022/10/09 12:04:29;;;;;;;21.55;19.90;;;15.20;99.90;;;;;;5009483;23;20557;-72
2022/10/09 12:07:29;;;;;;;21.95;20.35;;;15.30;99.90;;;;;;5036138;28;20037;-72
2022/10/09 12:10:06;;;;;;;21.63;20.08;;;15.40;99.90;;;;;;5053312;28;20040;-72
2022/10/09 12:12:36;;;;;;;22.67;20.95;;;15.20;99.90;;;;;;5035275;28;20041;-72
2022/10/09 12:15:23;;;;;;;21.77;20.15;;;15.20;99.90;;;;;;5017526;28;20145;-72
2022/10/09 12:17:50;;;;;;;22.15;20.45;;;15.30;99.90;;;;;;5016048;28;20502;-72
2022/10/09 12:20:21;;;;;;;22.98;20.92;;;15.50;99.90;;;;;;5036357;28;20319;-72
2022/10/09 12:23:00;;;;;;;22.38;20.88;;;15.60;99.90;;;;;;5035391;28;20401;-72
2022/10/09 12:25:48;;;;;;;22.10;20.77;;;15.30;99.90;;;;;;5038451;28;20041;-72
2022/10/09 12:28:41;;;;;;;23.02;21.52;;;15.20;99.90;;;;;;5036123;28;20430;-72
2022/10/09 12:31:18;;;;;;;23.30;21.30;;;15.00;99.90;;;;;;5014477;28;20045;-72
2022/10/09 12:33:51;;;;;;;22.60;21.05;;;15.00;99.90;;;;;;5036234;28;20045;-72
2022/10/09 12:36:24;;;;;;;22.45;20.88;;;15.20;99.90;;;;;;5022831;28;20029;-71
2022/10/09 12:38:51;;;;;;;21.50;19.83;;;15.00;99.90;;;;;;5035092;28;20041;-72
2022/10/09 12:41:31;;;;;;;21.73;20.08;;;14.80;99.90;;;;;;5033806;28;20447;-71
2022/10/09 12:43:58;;;;;;;22.02;20.25;;;14.80;99.90;;;;;;5029338;28;20047;-72
2022/10/09 12:46:32;;;;;;;23.30;21.50;;;15.10;99.90;;;;;;5020234;28;20497;-72
2022/10/09 12:49:00;;;;;;;22.55;21.00;;;15.10;99.90;;;;;;5037551;28;20068;-72
2022/10/09 12:51:30;;;;;;;22.23;20.65;;;15.40;99.90;;;;;;5034380;28;20040;-72
2022/10/09 12:53:56;;;;;;;22.42;20.75;;;15.70;99.90;;;;;;5017447;28;20499;-72
2022/10/09 12:56:33;;;;;;;23.27;21.33;;;15.70;99.90;;;;;;5036112;28;20040;-72
2022/10/09 12:59:01;;;;;;;22.52;20.85;;;15.80;99.90;;;;;;5036636;28;20037;-72